sensor_id;sensor_type;location;lat;lon;timestamp;P1;durP1;ratioP1;P2;durP2;ratioP2
53931;SDS011;39844;52.496;13.482;2023-06-26T00:01:35;6.28;;;5.30;;
53931;SDS011;39844;52.496;13.482;2023-06-26T00:04:01;5.70;;;4.78;;
53931;SDS011;39844;52.496;13.482;2023-06-26T00:06:26;7.80;;;5.40;;
53931;SDS011;39844;52.496;13.482;2023-06-26T00:08:53;5.40;;;4.90;;
53931;SDS011;39844;52.496;13.482;2023-06-26T00:11:19;7.00;;;5.40;;
53931;SDS011;39844;52.496;13.482;2023-06-26T00:13:45;6.88;;;4.85;;
53931;SDS011;39844;52.496;13.482;2023-06-26T00:16:10;6.25;;;5.53;;
53931;SDS011;39844;52.496;13.482;2023-06-26T00:18:36;6.37;;;5.27;;
53931;SDS011;39844;52.496;13.482;2023-06-26T00:21:01;5.60;;;4.75;;
53931;SDS011;39844;52.496;13.482;2023-06-26T00:23:26;8.60;;;5.63;;
53931;SDS011;39844;52.496;13.482;2023-06-26T00:25:51;5.85;;;5.32;;
53931;SDS011;39844;52.496;13.482;2023-06-26T00:28:17;6.13;;;5.22;;
53931;SDS011;39844;52.496;13.482;2023-06-26T00:30:42;7.97;;;5.57;;
53931;SDS011;39844;52.496;13.482;2023-06-26T00:33:07;6.95;;;5.50;;
53931;SDS011;39844;52.496;13.482;2023-06-26T00:35:32;5.18;;;4.63;;
53931;SDS011;39844;52.496;13.482;2023-06-26T00:37:58;5.90;;;5.20;;
53931;SDS011;39844;52.496;13.482;2023-06-26T00:40:23;9.45;;;5.20;;
53931;SDS011;39844;52.496;13.482;2023-06-26T00:42:49;5.30;;;4.80;;
53931;SDS011;39844;52.496;13.482;2023-06-26T00:45:14;5.63;;;5.13;;
53931;SDS011;39844;52.496;13.482;2023-06-26T00:47:40;5.83;;;5.20;;
53931;SDS011;39844;52.496;13.482;2023-06-26T00:50:06;6.10;;;5.50;;
53931;SDS011;39844;52.496;13.482;2023-06-26T00:52:31;7.33;;;5.10;;
53931;SDS011;39844;52.496;13.482;2023-06-26T00:54:57;5.20;;;4.70;;
53931;SDS011;39844;52.496;13.482;2023-06-26T00:57:23;5.83;;;4.97;;
53931;SDS011;39844;52.496;13.482;2023-06-26T00:59:48;5.77;;;5.13;;
53931;SDS011;39844;52.496;13.482;2023-06-26T01:02:14;6.07;;;5.03;;
53931;SDS011;39844;52.496;13.482;2023-06-26T01:04:39;7.57;;;5.60;;
53931;SDS011;39844;52.496;13.482;2023-06-26T01:07:04;6.30;;;5.30;;
53931;SDS011;39844;52.496;13.482;2023-06-26T01:09:30;7.30;;;5.77;;
53931;SDS011;39844;52.496;13.482;2023-06-26T01:11:56;7.70;;;5.83;;
53931;SDS011;39844;52.496;13.482;2023-06-26T01:14:21;7.47;;;5.37;;
53931;SDS011;39844;52.496;13.482;2023-06-26T01:16:48;6.05;;;5.43;;
53931;SDS011;39844;52.496;13.482;2023-06-26T01:19:18;5.88;;;5.07;;
53931;SDS011;39844;52.496;13.482;2023-06-26T01:21:48;6.50;;;5.57;;
53931;SDS011;39844;52.496;13.482;2023-06-26T01:24:16;5.70;;;5.10;;
53931;SDS011;39844;52.496;13.482;2023-06-26T01:26:42;7.43;;;6.30;;
53931;SDS011;39844;52.496;13.482;2023-06-26T01:29:09;8.88;;;5.95;;
53931;SDS011;39844;52.496;13.482;2023-06-26T01:31:35;7.47;;;5.50;;
53931;SDS011;39844;52.496;13.482;2023-06-26T01:34:01;7.37;;;6.00;;
53931;SDS011;39844;52.496;13.482;2023-06-26T01:36:27;7.47;;;5.90;;
53931;SDS011;39844;52.496;13.482;2023-06-26T01:38:52;6.18;;;5.63;;
53931;SDS011;39844;52.496;13.482;2023-06-26T01:41:18;6.20;;;5.57;;
53931;SDS011;39844;52.496;13.482;2023-06-26T01:52:09;5.73;;;5.23;;
53931;SDS011;39844;52.496;13.482;2023-06-26T01:54:45;6.77;;;5.80;;
53931;SDS011;39844;52.496;13.482;2023-06-26T01:57:17;6.10;;;5.50;;
53931;SDS011;39844;52.496;13.482;2023-06-26T01:59:43;7.77;;;6.30;;
53931;SDS011;39844;52.496;13.482;2023-06-26T02:02:12;6.47;;;5.40;;
53931;SDS011;39844;52.496;13.482;2023-06-26T02:04:38;6.40;;;5.80;;
53931;SDS011;39844;52.496;13.482;2023-06-26T02:07:03;7.73;;;6.17;;
53931;SDS011;39844;52.496;13.482;2023-06-26T02:09:29;7.27;;;5.90;;
53931;SDS011;39844;52.496;13.482;2023-06-26T02:11:55;7.07;;;6.17;;
53931;SDS011;39844;52.496;13.482;2023-06-26T02:14:20;7.17;;;5.43;;
53931;SDS011;39844;52.496;13.482;2023-06-26T02:16:46;7.37;;;5.77;;
53931;SDS011;39844;52.496;13.482;2023-06-26T02:19:17;7.93;;;6.13;;
53931;SDS011;39844;52.496;13.482;2023-06-26T02:21:42;6.27;;;5.73;;
53931;SDS011;39844;52.496;13.482;2023-06-26T02:24:11;7.07;;;5.77;;
53931;SDS011;39844;52.496;13.482;2023-06-26T02:26:36;7.80;;;5.90;;
53931;SDS011;39844;52.496;13.482;2023-06-26T02:29:02;9.20;;;7.00;;
53931;SDS011;39844;52.496;13.482;2023-06-26T02:31:30;6.53;;;5.83;;
53931;SDS011;39844;52.496;13.482;2023-06-26T02:33:55;8.97;;;5.93;;
53931;SDS011;39844;52.496;13.482;2023-06-26T02:36:26;6.00;;;5.40;;
53931;SDS011;39844;52.496;13.482;2023-06-26T02:38:52;8.13;;;6.33;;
53931;SDS011;39844;52.496;13.482;2023-06-26T02:41:20;7.60;;;6.33;;
53931;SDS011;39844;52.496;13.482;2023-06-26T02:43:46;7.87;;;6.03;;
53931;SDS011;39844;52.496;13.482;2023-06-26T02:46:11;8.77;;;6.97;;
53931;SDS011;39844;52.496;13.482;2023-06-26T02:48:36;6.97;;;6.27;;
53931;SDS011;39844;52.496;13.482;2023-06-26T02:51:01;7.20;;;6.27;;
53931;SDS011;39844;52.496;13.482;2023-06-26T02:53:27;8.47;;;6.57;;
53931;SDS011;39844;52.496;13.482;2023-06-26T02:55:52;7.97;;;6.87;;
53931;SDS011;39844;52.496;13.482;2023-06-26T02:58:17;6.40;;;5.77;;
53931;SDS011;39844;52.496;13.482;2023-06-26T03:00:43;7.17;;;6.13;;
53931;SDS011;39844;52.496;13.482;2023-06-26T03:03:08;7.43;;;6.30;;
53931;SDS011;39844;52.496;13.482;2023-06-26T03:05:34;10.70;;;7.33;;
53931;SDS011;39844;52.496;13.482;2023-06-26T03:07:59;7.50;;;6.70;;
53931;SDS011;39844;52.496;13.482;2023-06-26T03:10:24;10.20;;;7.20;;
53931;SDS011;39844;52.496;13.482;2023-06-26T03:12:50;9.53;;;7.40;;
53931;SDS011;39844;52.496;13.482;2023-06-26T03:15:15;10.13;;;6.83;;
53931;SDS011;39844;52.496;13.482;2023-06-26T03:17:40;7.73;;;6.40;;
53931;SDS011;39844;52.496;13.482;2023-06-26T03:20:06;7.07;;;6.37;;
53931;SDS011;39844;52.496;13.482;2023-06-26T03:22:32;7.57;;;6.53;;
53931;SDS011;39844;52.496;13.482;2023-06-26T03:24:58;8.10;;;6.50;;
53931;SDS011;39844;52.496;13.482;2023-06-26T03:27:23;7.70;;;6.13;;
53931;SDS011;39844;52.496;13.482;2023-06-26T03:29:49;8.10;;;6.83;;
53931;SDS011;39844;52.496;13.482;2023-06-26T03:32:16;7.80;;;6.67;;
53931;SDS011;39844;52.496;13.482;2023-06-26T03:34:41;8.13;;;6.60;;
53931;SDS011;39844;52.496;13.482;2023-06-26T03:37:06;8.30;;;7.17;;
53931;SDS011;39844;52.496;13.482;2023-06-26T03:39:32;9.83;;;7.70;;
53931;SDS011;39844;52.496;13.482;2023-06-26T03:41:57;10.70;;;7.17;;
53931;SDS011;39844;52.496;13.482;2023-06-26T03:44:22;8.07;;;6.97;;
53931;SDS011;39844;52.496;13.482;2023-06-26T03:46:48;8.13;;;6.53;;
53931;SDS011;39844;52.496;13.482;2023-06-26T03:49:13;9.67;;;6.87;;
53931;SDS011;39844;52.496;13.482;2023-06-26T03:51:38;7.57;;;6.50;;
53931;SDS011;39844;52.496;13.482;2023-06-26T03:54:03;8.60;;;6.80;;
53931;SDS011;39844;52.496;13.482;2023-06-26T03:56:29;8.90;;;7.07;;
53931;SDS011;39844;52.496;13.482;2023-06-26T03:58:54;9.43;;;6.60;;
53931;SDS011;39844;52.496;13.482;2023-06-26T04:01:19;8.60;;;6.77;;
53931;SDS011;39844;52.496;13.482;2023-06-26T04:03:45;7.77;;;6.83;;
53931;SDS011;39844;52.496;13.482;2023-06-26T04:06:10;9.77;;;6.70;;
53931;SDS011;39844;52.496;13.482;2023-06-26T04:08:35;9.97;;;7.03;;
53931;SDS011;39844;52.496;13.482;2023-06-26T04:11:01;7.80;;;6.47;;
53931;SDS011;39844;52.496;13.482;2023-06-26T04:13:26;6.97;;;6.27;;
53931;SDS011;39844;52.496;13.482;2023-06-26T04:15:51;8.30;;;7.00;;
53931;SDS011;39844;52.496;13.482;2023-06-26T04:18:16;10.77;;;7.27;;
53931;SDS011;39844;52.496;13.482;2023-06-26T04:23:34;8.00;;;6.30;;
53931;SDS011;39844;52.496;13.482;2023-06-26T04:25:59;8.27;;;7.20;;
53931;SDS011;39844;52.496;13.482;2023-06-26T04:28:25;8.23;;;6.93;;
53931;SDS011;39844;52.496;13.482;2023-06-26T04:30:50;10.73;;;6.47;;
53931;SDS011;39844;52.496;13.482;2023-06-26T04:33:16;8.90;;;6.67;;
53931;SDS011;39844;52.496;13.482;2023-06-26T04:35:41;7.97;;;6.83;;
53931;SDS011;39844;52.496;13.482;2023-06-26T04:38:06;9.07;;;7.18;;
53931;SDS011;39844;52.496;13.482;2023-06-26T04:40:31;9.57;;;6.95;;
53931;SDS011;39844;52.496;13.482;2023-06-26T04:42:57;8.40;;;6.80;;
53931;SDS011;39844;52.496;13.482;2023-06-26T04:45:22;8.63;;;7.15;;
53931;SDS011;39844;52.496;13.482;2023-06-26T04:47:47;7.50;;;6.72;;
53931;SDS011;39844;52.496;13.482;2023-06-26T04:50:13;7.88;;;6.45;;
53931;SDS011;39844;52.496;13.482;2023-06-26T04:52:40;8.98;;;7.13;;
53931;SDS011;39844;52.496;13.482;2023-06-26T04:55:06;7.82;;;6.50;;
53931;SDS011;39844;52.496;13.482;2023-06-26T04:57:31;8.25;;;6.72;;
53931;SDS011;39844;52.496;13.482;2023-06-26T04:59:56;8.60;;;7.38;;
53931;SDS011;39844;52.496;13.482;2023-06-26T05:02:22;9.27;;;7.18;;
53931;SDS011;39844;52.496;13.482;2023-06-26T05:04:47;9.65;;;7.10;;
53931;SDS011;39844;52.496;13.482;2023-06-26T05:07:12;8.43;;;7.05;;
53931;SDS011;39844;52.496;13.482;2023-06-26T05:09:38;8.32;;;6.78;;
53931;SDS011;39844;52.496;13.482;2023-06-26T05:12:03;7.82;;;6.63;;
53931;SDS011;39844;52.496;13.482;2023-06-26T05:14:29;8.68;;;7.22;;
53931;SDS011;39844;52.496;13.482;2023-06-26T05:16:54;10.85;;;7.15;;
53931;SDS011;39844;52.496;13.482;2023-06-26T05:19:19;7.40;;;6.45;;
53931;SDS011;39844;52.496;13.482;2023-06-26T05:21:45;8.98;;;6.60;;
53931;SDS011;39844;52.496;13.482;2023-06-26T05:24:11;8.27;;;7.45;;
53931;SDS011;39844;52.496;13.482;2023-06-26T05:26:38;7.80;;;6.70;;
53931;SDS011;39844;52.496;13.482;2023-06-26T05:29:03;7.38;;;6.40;;
53931;SDS011;39844;52.496;13.482;2023-06-26T05:31:30;7.90;;;6.82;;
53931;SDS011;39844;52.496;13.482;2023-06-26T05:33:57;8.27;;;7.22;;
53931;SDS011;39844;52.496;13.482;2023-06-26T05:36:25;9.20;;;7.18;;
53931;SDS011;39844;52.496;13.482;2023-06-26T05:38:51;8.00;;;6.95;;
53931;SDS011;39844;52.496;13.482;2023-06-26T05:41:16;7.43;;;6.65;;
53931;SDS011;39844;52.496;13.482;2023-06-26T05:43:42;8.55;;;6.65;;
53931;SDS011;39844;52.496;13.482;2023-06-26T05:46:09;8.45;;;6.65;;
53931;SDS011;39844;52.496;13.482;2023-06-26T05:48:35;8.20;;;6.93;;
53931;SDS011;39844;52.496;13.482;2023-06-26T05:51:00;10.10;;;7.18;;
53931;SDS011;39844;52.496;13.482;2023-06-26T05:53:26;8.77;;;6.60;;
53931;SDS011;39844;52.496;13.482;2023-06-26T05:55:52;8.88;;;6.20;;
53931;SDS011;39844;52.496;13.482;2023-06-26T05:58:17;7.40;;;6.43;;
53931;SDS011;39844;52.496;13.482;2023-06-26T06:00:45;6.88;;;6.15;;
53931;SDS011;39844;52.496;13.482;2023-06-26T06:03:10;7.78;;;6.78;;
53931;SDS011;39844;52.496;13.482;2023-06-26T06:05:35;8.23;;;6.97;;
53931;SDS011;39844;52.496;13.482;2023-06-26T06:08:01;8.02;;;6.55;;
53931;SDS011;39844;52.496;13.482;2023-06-26T06:10:26;7.53;;;6.10;;
53931;SDS011;39844;52.496;13.482;2023-06-26T06:12:51;8.73;;;5.97;;
53931;SDS011;39844;52.496;13.482;2023-06-26T06:15:17;6.68;;;6.07;;
53931;SDS011;39844;52.496;13.482;2023-06-26T06:17:42;10.50;;;6.57;;
53931;SDS011;39844;52.496;13.482;2023-06-26T06:20:07;9.20;;;5.90;;
53931;SDS011;39844;52.496;13.482;2023-06-26T06:22:33;7.43;;;6.38;;
53931;SDS011;39844;52.496;13.482;2023-06-26T06:24:58;7.30;;;6.13;;
53931;SDS011;39844;52.496;13.482;2023-06-26T06:27:24;6.95;;;6.28;;
53931;SDS011;39844;52.496;13.482;2023-06-26T06:29:49;6.43;;;5.82;;
53931;SDS011;39844;52.496;13.482;2023-06-26T06:32:14;9.60;;;5.88;;
53931;SDS011;39844;52.496;13.482;2023-06-26T06:34:39;5.80;;;5.22;;
53931;SDS011;39844;52.496;13.482;2023-06-26T06:37:05;9.20;;;5.45;;
53931;SDS011;39844;52.496;13.482;2023-06-26T06:39:30;5.90;;;5.30;;
53931;SDS011;39844;52.496;13.482;2023-06-26T06:41:55;6.20;;;5.60;;
53931;SDS011;39844;52.496;13.482;2023-06-26T06:44:21;8.13;;;5.90;;
53931;SDS011;39844;52.496;13.482;2023-06-26T06:46:46;5.95;;;5.38;;
53931;SDS011;39844;52.496;13.482;2023-06-26T06:49:11;6.07;;;4.65;;
53931;SDS011;39844;52.496;13.482;2023-06-26T06:51:36;8.20;;;6.43;;
53931;SDS011;39844;52.496;13.482;2023-06-26T06:54:02;5.70;;;5.07;;
53931;SDS011;39844;52.496;13.482;2023-06-26T06:56:27;5.63;;;5.13;;
53931;SDS011;39844;52.496;13.482;2023-06-26T06:58:52;5.20;;;4.75;;
53931;SDS011;39844;52.496;13.482;2023-06-26T07:01:18;6.03;;;5.43;;
53931;SDS011;39844;52.496;13.482;2023-06-26T07:03:43;5.85;;;5.25;;
53931;SDS011;39844;52.496;13.482;2023-06-26T07:06:08;10.75;;;6.88;;
53931;SDS011;39844;52.496;13.482;2023-06-26T07:08:33;5.30;;;4.80;;
53931;SDS011;39844;52.496;13.482;2023-06-26T07:10:59;5.68;;;5.07;;
53931;SDS011;39844;52.496;13.482;2023-06-26T07:13:24;5.50;;;4.97;;
53931;SDS011;39844;52.496;13.482;2023-06-26T07:15:49;10.20;;;5.15;;
53931;SDS011;39844;52.496;13.482;2023-06-26T07:18:15;5.60;;;5.00;;
53931;SDS011;39844;52.496;13.482;2023-06-26T07:20:41;5.93;;;5.10;;
53931;SDS011;39844;52.496;13.482;2023-06-26T07:23:06;4.82;;;4.22;;
53931;SDS011;39844;52.496;13.482;2023-06-26T07:25:31;5.25;;;4.45;;
53931;SDS011;39844;52.496;13.482;2023-06-26T07:27:57;5.20;;;4.70;;
53931;SDS011;39844;52.496;13.482;2023-06-26T07:30:22;4.82;;;4.32;;
53931;SDS011;39844;52.496;13.482;2023-06-26T07:32:47;5.57;;;4.53;;
53931;SDS011;39844;52.496;13.482;2023-06-26T07:38:15;4.82;;;4.28;;
53931;SDS011;39844;52.496;13.482;2023-06-26T07:40:41;4.65;;;4.25;;
53931;SDS011;39844;52.496;13.482;2023-06-26T07:43:06;4.53;;;4.03;;
53931;SDS011;39844;52.496;13.482;2023-06-26T07:45:31;4.50;;;4.10;;
53931;SDS011;39844;52.496;13.482;2023-06-26T07:47:56;4.80;;;4.30;;
53931;SDS011;39844;52.496;13.482;2023-06-26T07:50:22;6.07;;;4.13;;
53931;SDS011;39844;52.496;13.482;2023-06-26T07:52:47;3.90;;;3.60;;
53931;SDS011;39844;52.496;13.482;2023-06-26T07:55:12;4.10;;;3.80;;
53931;SDS011;39844;52.496;13.482;2023-06-26T07:57:38;4.60;;;4.23;;
53931;SDS011;39844;52.496;13.482;2023-06-26T08:00:03;4.38;;;3.53;;
53931;SDS011;39844;52.496;13.482;2023-06-26T08:02:29;3.65;;;3.30;;
53931;SDS011;39844;52.496;13.482;2023-06-26T08:04:54;5.05;;;4.53;;
53931;SDS011;39844;52.496;13.482;2023-06-26T08:07:19;3.85;;;3.50;;
53931;SDS011;39844;52.496;13.482;2023-06-26T08:09:45;3.58;;;3.28;;
53931;SDS011;39844;52.496;13.482;2023-06-26T08:12:10;5.50;;;3.42;;
53931;SDS011;39844;52.496;13.482;2023-06-26T08:14:35;3.33;;;3.03;;
53931;SDS011;39844;52.496;13.482;2023-06-26T08:17:00;3.30;;;3.00;;
53931;SDS011;39844;52.496;13.482;2023-06-26T08:19:26;3.50;;;3.20;;
53931;SDS011;39844;52.496;13.482;2023-06-26T08:21:51;2.85;;;2.65;;
53931;SDS011;39844;52.496;13.482;2023-06-26T08:24:16;3.30;;;3.10;;
53931;SDS011;39844;52.496;13.482;2023-06-26T08:26:42;4.47;;;3.10;;
53931;SDS011;39844;52.496;13.482;2023-06-26T08:29:07;3.05;;;2.80;;
53931;SDS011;39844;52.496;13.482;2023-06-26T08:31:35;3.10;;;2.90;;
53931;SDS011;39844;52.496;13.482;2023-06-26T08:34:01;3.35;;;3.05;;
53931;SDS011;39844;52.496;13.482;2023-06-26T08:36:29;3.67;;;3.30;;
53931;SDS011;39844;52.496;13.482;2023-06-26T08:38:54;3.30;;;3.08;;
53931;SDS011;39844;52.496;13.482;2023-06-26T08:41:20;3.60;;;3.30;;
53931;SDS011;39844;52.496;13.482;2023-06-26T08:43:45;3.00;;;2.70;;
53931;SDS011;39844;52.496;13.482;2023-06-26T08:46:10;3.17;;;2.88;;
53931;SDS011;39844;52.496;13.482;2023-06-26T08:48:36;3.35;;;2.92;;
53931;SDS011;39844;52.496;13.482;2023-06-26T08:51:05;2.92;;;2.72;;
53931;SDS011;39844;52.496;13.482;2023-06-26T08:56:17;2.47;;;2.20;;
53931;SDS011;39844;52.496;13.482;2023-06-26T08:58:45;2.97;;;2.63;;
53931;SDS011;39844;52.496;13.482;2023-06-26T09:01:11;2.83;;;2.63;;
53931;SDS011;39844;52.496;13.482;2023-06-26T09:03:37;3.25;;;2.95;;
53931;SDS011;39844;52.496;13.482;2023-06-26T09:06:03;2.60;;;2.40;;
53931;SDS011;39844;52.496;13.482;2023-06-26T09:08:28;3.30;;;3.00;;
53931;SDS011;39844;52.496;13.482;2023-06-26T09:10:53;2.92;;;2.70;;
53931;SDS011;39844;52.496;13.482;2023-06-26T09:13:19;3.10;;;2.90;;
53931;SDS011;39844;52.496;13.482;2023-06-26T09:15:44;2.97;;;2.67;;
53931;SDS011;39844;52.496;13.482;2023-06-26T09:18:11;2.70;;;2.50;;
53931;SDS011;39844;52.496;13.482;2023-06-26T09:20:36;2.78;;;2.58;;
53931;SDS011;39844;52.496;13.482;2023-06-26T09:23:02;4.80;;;2.72;;
53931;SDS011;39844;52.496;13.482;2023-06-26T09:25:28;2.83;;;2.63;;
53931;SDS011;39844;52.496;13.482;2023-06-26T09:27:54;4.38;;;2.60;;
53931;SDS011;39844;52.496;13.482;2023-06-26T09:30:20;2.70;;;2.50;;
53931;SDS011;39844;52.496;13.482;2023-06-26T09:32:46;3.35;;;3.13;;
53931;SDS011;39844;52.496;13.482;2023-06-26T09:35:12;4.28;;;2.53;;
53931;SDS011;39844;52.496;13.482;2023-06-26T09:37:37;2.83;;;2.63;;
53931;SDS011;39844;52.496;13.482;2023-06-26T09:40:03;2.80;;;2.60;;
53931;SDS011;39844;52.496;13.482;2023-06-26T09:42:29;4.13;;;2.80;;
53931;SDS011;39844;52.496;13.482;2023-06-26T09:44:54;3.00;;;2.80;;
53931;SDS011;39844;52.496;13.482;2023-06-26T09:47:20;2.42;;;2.33;;
53931;SDS011;39844;52.496;13.482;2023-06-26T09:49:45;3.97;;;2.80;;
53931;SDS011;39844;52.496;13.482;2023-06-26T09:52:13;3.17;;;2.78;;
53931;SDS011;39844;52.496;13.482;2023-06-26T09:54:40;3.40;;;3.08;;
53931;SDS011;39844;52.496;13.482;2023-06-26T09:57:08;3.20;;;2.90;;
53931;SDS011;39844;52.496;13.482;2023-06-26T09:59:34;2.83;;;2.63;;
53931;SDS011;39844;52.496;13.482;2023-06-26T10:02:01;3.05;;;2.85;;
53931;SDS011;39844;52.496;13.482;2023-06-26T10:04:26;2.97;;;2.70;;
53931;SDS011;39844;52.496;13.482;2023-06-26T10:06:51;4.15;;;3.42;;
53931;SDS011;39844;52.496;13.482;2023-06-26T10:09:20;3.08;;;2.85;;
53931;SDS011;39844;52.496;13.482;2023-06-26T10:12:01;3.20;;;3.00;;
53931;SDS011;39844;52.496;13.482;2023-06-26T10:14:32;3.30;;;3.10;;
53931;SDS011;39844;52.496;13.482;2023-06-26T10:16:59;3.17;;;2.90;;
53931;SDS011;39844;52.496;13.482;2023-06-26T10:19:26;2.80;;;2.58;;
53931;SDS011;39844;52.496;13.482;2023-06-26T10:21:53;4.07;;;3.30;;
53931;SDS011;39844;52.496;13.482;2023-06-26T10:24:19;5.65;;;2.78;;
53931;SDS011;39844;52.496;13.482;2023-06-26T10:26:45;3.38;;;2.88;;
53931;SDS011;39844;52.496;13.482;2023-06-26T10:29:24;4.25;;;3.08;;
53931;SDS011;39844;52.496;13.482;2023-06-26T10:31:51;3.50;;;3.20;;
53931;SDS011;39844;52.496;13.482;2023-06-26T10:34:20;2.65;;;2.50;;
53931;SDS011;39844;52.496;13.482;2023-06-26T10:36:46;3.17;;;2.90;;
53931;SDS011;39844;52.496;13.482;2023-06-26T10:39:11;4.60;;;2.70;;
53931;SDS011;39844;52.496;13.482;2023-06-26T10:41:37;2.95;;;2.75;;
53931;SDS011;39844;52.496;13.482;2023-06-26T10:44:07;2.88;;;2.67;;
53931;SDS011;39844;52.496;13.482;2023-06-26T10:46:55;2.90;;;2.70;;
53931;SDS011;39844;52.496;13.482;2023-06-26T10:49:24;2.90;;;2.70;;
53931;SDS011;39844;52.496;13.482;2023-06-26T10:51:51;2.67;;;2.47;;
53931;SDS011;39844;52.496;13.482;2023-06-26T10:54:17;2.70;;;2.55;;
53931;SDS011;39844;52.496;13.482;2023-06-26T10:59:22;2.45;;;2.35;;
53931;SDS011;39844;52.496;13.482;2023-06-26T11:02:00;2.80;;;2.60;;
53931;SDS011;39844;52.496;13.482;2023-06-26T11:04:39;3.10;;;2.85;;
53931;SDS011;39844;52.496;13.482;2023-06-26T11:07:24;2.45;;;2.17;;
53931;SDS011;39844;52.496;13.482;2023-06-26T11:09:54;2.92;;;2.72;;
53931;SDS011;39844;52.496;13.482;2023-06-26T11:15:00;3.85;;;3.55;;
53931;SDS011;39844;52.496;13.482;2023-06-26T11:17:26;2.72;;;2.53;;
53931;SDS011;39844;52.496;13.482;2023-06-26T11:19:52;2.85;;;2.65;;
53931;SDS011;39844;52.496;13.482;2023-06-26T11:22:17;3.13;;;2.80;;
53931;SDS011;39844;52.496;13.482;2023-06-26T11:24:44;3.05;;;2.85;;
53931;SDS011;39844;52.496;13.482;2023-06-26T11:27:09;2.80;;;2.60;;
53931;SDS011;39844;52.496;13.482;2023-06-26T11:29:34;2.70;;;2.50;;
53931;SDS011;39844;52.496;13.482;2023-06-26T11:32:00;2.92;;;2.78;;
53931;SDS011;39844;52.496;13.482;2023-06-26T11:34:29;3.13;;;2.92;;
53931;SDS011;39844;52.496;13.482;2023-06-26T11:36:56;4.05;;;2.80;;
53931;SDS011;39844;52.496;13.482;2023-06-26T11:39:22;3.28;;;2.97;;
53931;SDS011;39844;52.496;13.482;2023-06-26T11:41:47;2.83;;;2.70;;
53931;SDS011;39844;52.496;13.482;2023-06-26T11:44:12;3.20;;;2.90;;
53931;SDS011;39844;52.496;13.482;2023-06-26T11:46:38;2.63;;;2.42;;
53931;SDS011;39844;52.496;13.482;2023-06-26T11:49:03;4.35;;;2.70;;
53931;SDS011;39844;52.496;13.482;2023-06-26T11:51:30;2.97;;;2.78;;
53931;SDS011;39844;52.496;13.482;2023-06-26T11:53:55;3.33;;;3.03;;
53931;SDS011;39844;52.496;13.482;2023-06-26T11:56:20;3.38;;;3.05;;
53931;SDS011;39844;52.496;13.482;2023-06-26T12:01:30;3.10;;;2.72;;
53931;SDS011;39844;52.496;13.482;2023-06-26T12:03:58;3.40;;;2.60;;
53931;SDS011;39844;52.496;13.482;2023-06-26T12:06:25;3.15;;;2.85;;
53931;SDS011;39844;52.496;13.482;2023-06-26T12:08:50;3.17;;;2.85;;
53931;SDS011;39844;52.496;13.482;2023-06-26T12:11:16;2.83;;;2.63;;
53931;SDS011;39844;52.496;13.482;2023-06-26T12:13:42;2.88;;;2.72;;
53931;SDS011;39844;52.496;13.482;2023-06-26T12:16:08;3.38;;;3.08;;
53931;SDS011;39844;52.496;13.482;2023-06-26T12:18:34;5.40;;;3.08;;
53931;SDS011;39844;52.496;13.482;2023-06-26T12:21:00;3.42;;;3.17;;
53931;SDS011;39844;52.496;13.482;2023-06-26T12:23:31;3.28;;;3.08;;
53931;SDS011;39844;52.496;13.482;2023-06-26T12:25:58;3.03;;;2.83;;
53931;SDS011;39844;52.496;13.482;2023-06-26T12:28:23;2.97;;;2.78;;
53931;SDS011;39844;52.496;13.482;2023-06-26T12:31:11;3.08;;;2.88;;
53931;SDS011;39844;52.496;13.482;2023-06-26T12:33:38;3.08;;;2.88;;
53931;SDS011;39844;52.496;13.482;2023-06-26T12:36:03;2.95;;;2.75;;
53931;SDS011;39844;52.496;13.482;2023-06-26T12:38:33;3.10;;;2.90;;
53931;SDS011;39844;52.496;13.482;2023-06-26T12:40:58;3.17;;;2.97;;
53931;SDS011;39844;52.496;13.482;2023-06-26T12:43:26;3.78;;;2.70;;
53931;SDS011;39844;52.496;13.482;2023-06-26T12:45:55;4.53;;;3.03;;
53931;SDS011;39844;52.496;13.482;2023-06-26T12:48:20;3.55;;;3.05;;
53931;SDS011;39844;52.496;13.482;2023-06-26T12:50:46;3.22;;;3.03;;
53931;SDS011;39844;52.496;13.482;2023-06-26T12:53:11;3.72;;;3.30;;
53931;SDS011;39844;52.496;13.482;2023-06-26T12:55:36;3.83;;;3.25;;
53931;SDS011;39844;52.496;13.482;2023-06-26T12:58:02;7.82;;;3.67;;
53931;SDS011;39844;52.496;13.482;2023-06-26T13:00:27;3.97;;;3.50;;
53931;SDS011;39844;52.496;13.482;2023-06-26T13:02:52;3.33;;;3.05;;
53931;SDS011;39844;52.496;13.482;2023-06-26T13:05:18;2.92;;;2.72;;
53931;SDS011;39844;52.496;13.482;2023-06-26T13:07:44;3.33;;;3.08;;
53931;SDS011;39844;52.496;13.482;2023-06-26T13:10:09;3.97;;;3.63;;
53931;SDS011;39844;52.496;13.482;2023-06-26T13:12:35;3.50;;;3.20;;
53931;SDS011;39844;52.496;13.482;2023-06-26T13:15:00;3.80;;;3.50;;
53931;SDS011;39844;52.496;13.482;2023-06-26T13:17:25;3.33;;;2.97;;
53931;SDS011;39844;52.496;13.482;2023-06-26T13:19:51;4.20;;;3.90;;
53931;SDS011;39844;52.496;13.482;2023-06-26T13:22:16;3.80;;;3.50;;
53931;SDS011;39844;52.496;13.482;2023-06-26T13:24:42;4.35;;;3.40;;
53931;SDS011;39844;52.496;13.482;2023-06-26T13:27:07;10.88;;;3.50;;
53931;SDS011;39844;52.496;13.482;2023-06-26T13:29:32;3.75;;;3.45;;
53931;SDS011;39844;52.496;13.482;2023-06-26T13:31:58;3.97;;;3.65;;
53931;SDS011;39844;52.496;13.482;2023-06-26T13:34:24;4.15;;;3.75;;
53931;SDS011;39844;52.496;13.482;2023-06-26T13:36:49;4.78;;;3.50;;
53931;SDS011;39844;52.496;13.482;2023-06-26T13:39:15;4.05;;;3.55;;
53931;SDS011;39844;52.496;13.482;2023-06-26T13:41:40;3.42;;;3.22;;
53931;SDS011;39844;52.496;13.482;2023-06-26T13:44:06;3.60;;;3.30;;
53931;SDS011;39844;52.496;13.482;2023-06-26T13:46:31;3.85;;;3.47;;
53931;SDS011;39844;52.496;13.482;2023-06-26T13:48:59;4.20;;;3.75;;
53931;SDS011;39844;52.496;13.482;2023-06-26T13:51:24;3.80;;;3.40;;
53931;SDS011;39844;52.496;13.482;2023-06-26T13:53:50;3.88;;;3.58;;
53931;SDS011;39844;52.496;13.482;2023-06-26T13:56:15;3.97;;;3.65;;
53931;SDS011;39844;52.496;13.482;2023-06-26T13:58:40;4.03;;;3.58;;
53931;SDS011;39844;52.496;13.482;2023-06-26T14:01:06;3.70;;;3.25;;
53931;SDS011;39844;52.496;13.482;2023-06-26T14:03:31;3.88;;;3.47;;
53931;SDS011;39844;52.496;13.482;2023-06-26T14:05:56;4.15;;;3.75;;
53931;SDS011;39844;52.496;13.482;2023-06-26T14:08:21;4.30;;;3.90;;
53931;SDS011;39844;52.496;13.482;2023-06-26T14:10:47;6.22;;;3.85;;
53931;SDS011;39844;52.496;13.482;2023-06-26T14:13:12;4.50;;;4.10;;
53931;SDS011;39844;52.496;13.482;2023-06-26T14:15:37;4.13;;;3.55;;
53931;SDS011;39844;52.496;13.482;2023-06-26T14:18:03;3.80;;;3.50;;
53931;SDS011;39844;52.496;13.482;2023-06-26T14:20:28;6.80;;;4.35;;
53931;SDS011;39844;52.496;13.482;2023-06-26T14:22:53;4.22;;;3.92;;
53931;SDS011;39844;52.496;13.482;2023-06-26T14:25:19;4.38;;;3.97;;
53931;SDS011;39844;52.496;13.482;2023-06-26T14:27:44;4.90;;;3.65;;
53931;SDS011;39844;52.496;13.482;2023-06-26T14:30:09;8.10;;;3.05;;
53931;SDS011;39844;52.496;13.482;2023-06-26T14:32:35;4.55;;;2.83;;
53931;SDS011;39844;52.496;13.482;2023-06-26T14:35:01;6.40;;;2.55;;
53931;SDS011;39844;52.496;13.482;2023-06-26T14:37:28;6.10;;;2.90;;
53931;SDS011;39844;52.496;13.482;2023-06-26T14:39:54;4.20;;;2.80;;
53931;SDS011;39844;52.496;13.482;2023-06-26T14:42:20;4.68;;;2.63;;
53931;SDS011;39844;52.496;13.482;2023-06-26T14:44:45;2.83;;;2.60;;
53931;SDS011;39844;52.496;13.482;2023-06-26T14:47:10;2.58;;;2.38;;
53931;SDS011;39844;52.496;13.482;2023-06-26T14:49:35;3.67;;;2.40;;
53931;SDS011;39844;52.496;13.482;2023-06-26T14:52:01;6.30;;;2.70;;